New Orleans, Louisiana
Traffic Map
Current Weather Conditions
New Orleans, Louisiana
Clear
Clear
29°
Feels Like: 36°
Wind Chill: 29° Ceiling: Unl
Heat Index: 36° Visibility: 10mi
Dew Point: 26° Wind: 9mph
Humidity: 82% Direction: 230° (SW)
Pressure: 30.06in Gusts: 0mph
Raw Report DataKNEW 180453Z AUTO 23008KT 10SM CLR 29/26 A3006 RMK AO2 SLP173 T02940261
Traffic Incident Summary
Active as of:
Severity:
Category:
InformationThere was an issue retrieving the traffic information for this location. Please try a different location or try again shortly.
Advertisements